Time;durP1;ratioP1;P1;durP2;ratioP2;P2;SDS_P1;SDS_P2;PMS_P1;PMS_P2;Temp;Humidity;BMP_temperature;BMP_pressure;BME280_temperature;BME280_humidity;BME280_pressure;Samples;Min_cycle;Max_cycle;Signal;HPM_P1;HPM_P2
2022/08/04 00:02:11;;;;;;;;;2.00;2.00;;;;;26.83;53.57;100459.94;4872205;29;45443;-85
2022/08/04 00:04:46;;;;;;;;;2.00;2.00;;;;;26.82;52.07;100457.31;4870754;29;45475;-85
2022/08/04 00:07:39;;;;;;;;;3.33;3.33;;;;;26.81;52.49;100453.72;4858367;29;45567;-86
2022/08/04 00:10:08;;;;;;;;;2.00;2.00;;;;;26.80;51.72;100456.50;4875983;28;45238;-85
2022/08/04 00:12:45;;;;;;;;;3.00;3.00;;;;;26.60;52.92;100419.47;4914696;28;45440;-85
2022/08/04 00:15:20;;;;;;;;;2.33;2.33;;;;;26.64;51.83;100431.97;4930285;28;47169;-85
2022/08/04 00:18:01;;;;;;;;;3.00;3.00;;;;;26.78;52.19;100464.78;4913966;28;45372;-84
2022/08/04 00:20:40;;;;;;;;;4.00;2.25;;;;;26.74;52.42;100471.38;4931783;28;44808;-84
2022/08/04 00:23:18;;;;;;;;;2.33;2.33;;;;;26.36;52.55;100417.19;4926001;28;45387;-86
2022/08/04 00:25:51;;;;;;;;;2.67;2.00;;;;;26.40;53.65;100442.41;4928178;28;46951;-86
2022/08/04 00:28:31;;;;;;;;;3.00;3.00;;;;;26.51;53.78;100469.97;4929113;28;45379;-86
2022/08/04 00:31:05;;;;;;;;;1.33;1.33;;;;;26.29;53.09;100434.84;4924546;28;44800;-86
2022/08/04 00:33:40;;;;;;;;;2.00;2.00;;;;;26.41;54.41;100461.41;4928342;28;45448;-85
2022/08/04 00:36:13;;;;;;;;;2.33;2.33;;;;;26.37;53.20;100461.69;4926933;28;47266;-86
2022/08/04 00:38:45;;;;;;;;;3.67;2.33;;;;;26.32;53.86;100470.13;4937749;28;45560;-85
2022/08/04 00:41:33;;;;;;;;;2.33;2.33;;;;;26.28;53.55;100468.53;4912152;28;45407;-86
2022/08/04 00:44:29;;;;;;;;;2.67;2.67;;;;;26.24;53.30;100469.63;4928979;28;45489;-85
2022/08/04 00:47:28;;;;;;;;;1.67;1.67;;;;;26.21;54.49;100464.38;4930510;28;46246;-85
2022/08/04 00:50:11;;;;;;;;;4.00;2.67;;;;;26.03;54.33;100445.34;4912589;28;45374;-85
2022/08/04 00:52:45;;;;;;;;;2.33;2.33;;;;;26.13;56.18;100464.78;4929055;28;45455;-85
2022/08/04 00:56:04;;;;;;;;;2.00;2.00;;;;;26.07;56.23;100460.56;4914450;28;45465;-86
2022/08/04 00:58:49;;;;;;;;;3.33;2.00;;;;;26.03;56.86;100464.41;4918415;28;47900;-86
2022/08/04 01:01:46;;;;;;;;;4.00;3.33;;;;;25.83;56.20;100443.66;4949137;28;45506;-86
2022/08/04 01:04:33;;;;;;;;;4.33;3.00;;;;;25.95;57.30;100472.13;4932212;28;45091;-85
2022/08/04 01:07:21;;;;;;;;;3.33;2.67;;;;;25.67;55.55;100434.56;4930793;28;45951;-85
2022/08/04 01:10:01;;;;;;;;;5.67;5.67;;;;;25.61;56.43;100419.47;4947505;28;45574;-86
2022/08/04 01:12:39;;;;;;;;;4.67;3.33;;;;;25.82;55.60;100471.88;4931100;28;45566;-86
2022/08/04 01:15:06;;;;;;;;;2.67;2.67;;;;;25.77;57.46;100465.78;4931825;28;44769;-85
2022/08/04 01:17:35;;;;;;;;;3.00;3.00;;;;;25.73;57.56;100466.91;4947893;28;45437;-85
2022/08/04 01:20:08;;;;;;;;;4.33;4.33;;;;;25.44;58.41;100430.34;4929266;28;47222;-85
2022/08/04 01:23:08;;;;;;;;;3.33;3.00;;;;;25.35;57.56;100418.13;4930023;28;45425;-85
2022/08/04 01:26:09;;;;;;;;;3.33;2.33;;;;;25.57;57.25;100466.84;4932024;28;45554;-85
2022/08/04 01:28:46;;;;;;;;;5.00;3.00;;;;;25.52;59.42;100469.81;4947983;28;45325;-85
2022/08/04 01:31:29;;;;;;;;;3.33;2.33;;;;;25.27;59.06;100443.03;4950899;28;47263;-85
2022/08/04 01:33:59;;;;;;;;;5.00;3.67;;;;;25.14;60.77;100428.22;4968266;28;45779;-85
2022/08/04 01:36:33;;;;;;;;;4.33;3.33;;;;;25.33;60.72;100469.91;4950721;28;44894;-85
2022/08/04 01:39:54;;;;;;;;;5.00;4.00;;;;;25.26;58.88;100457.56;4967100;28;45524;-84
2022/08/04 01:42:25;;;;;;;;;3.00;3.00;;;;;25.29;59.96;100451.09;4966372;28;47180;-86
2022/08/04 01:44:54;;;;;;;;;3.00;2.33;;;;;25.11;59.17;100434.72;4966474;28;44960;-86
2022/08/04 01:47:36;;;;;;;;;3.00;3.00;;;;;25.08;60.08;100434.00;4966263;28;45336;-86
2022/08/04 01:50:12;;;;;;;;;3.67;2.00;;;;;25.00;60.60;100428.06;4963643;28;45460;-85
2022/08/04 01:52:42;;;;;;;;;4.00;4.00;;;;;25.09;59.97;100455.69;4949083;28;47289;-86
2022/08/04 01:55:13;;;;;;;;;3.00;3.00;;;;;25.13;59.42;100450.97;4966055;28;45601;-85
2022/08/04 01:57:42;;;;;;;;;3.67;3.67;;;;;24.83;60.86;100404.44;4967724;28;44811;-85
2022/08/04 02:00:26;;;;;;;;;6.00;5.00;;;;;24.83;60.94;100421.66;4946447;28;45575;-85
2022/08/04 02:03:04;;;;;;;;;5.00;5.00;;;;;25.07;60.03;100454.88;4948270;28;45175;-86
2022/08/04 02:05:32;;;;;;;;;4.00;4.00;;;;;24.90;61.25;100441.25;4949626;28;45453;-85
2022/08/04 02:08:16;;;;;;;;;4.00;4.00;;;;;24.95;61.07;100459.09;4949831;28;45810;-85
2022/08/04 02:11:20;;;;;;;;;3.33;3.00;;;;;24.75;60.20;100429.31;4950758;28;45644;-85
2022/08/04 02:13:53;;;;;;;;;4.00;4.00;;;;;24.81;62.62;100445.31;4949112;28;46945;-85
2022/08/04 02:16:33;;;;;;;;;4.00;4.00;;;;;24.75;61.87;100442.91;4950528;28;45502;-85
2022/08/04 02:19:18;;;;;;;;;6.00;5.00;;;;;24.70;61.90;100436.78;4949559;28;45386;-85
2022/08/04 02:21:47;;;;;;;;;3.00;3.00;;;;;24.49;61.76;100400.66;4951020;28;44780;-86
2022/08/04 02:24:20;;;;;;;;;5.00;5.00;;;;;24.44;61.78;100383.66;4948447;28;46578;-86
2022/08/04 02:26:52;;;;;;;;;2.67;2.67;;;;;24.46;61.90;100388.09;4949236;28;45290;-86
2022/08/04 02:29:42;;;;;;;;;3.33;2.67;;;;;24.67;61.63;100418.81;4949640;28;45770;-86
2022/08/04 02:32:37;;;;;;;;;3.67;3.67;;;;;24.75;61.15;100434.75;4949726;28;44880;-85
2022/08/04 02:35:14;;;;;;;;;4.33;4.33;;;;;24.47;61.14;100389.84;4951889;28;45461;-86
2022/08/04 02:37:48;;;;;;;;;4.00;4.00;;;;;24.70;62.58;100426.81;4951039;28;44893;-86
2022/08/04 02:40:23;;;;;;;;;3.67;3.33;;;;;24.62;61.94;100429.03;4967076;28;45456;-86
2022/08/04 02:42:55;;;;;;;;;3.00;3.00;;;;;24.45;63.21;100418.06;4950610;28;44888;-86
2022/08/04 02:45:27;;;;;;;;;2.33;2.33;;;;;24.50;62.68;100446.84;4966522;28;47309;-85
2022/08/04 02:47:59;;;;;;;;;4.67;3.00;;;;;24.29;65.32;100420.66;4949799;28;45404;-86
2022/08/04 02:50:27;;;;;;;;;6.00;6.00;;;;;24.07;64.57;100396.34;4967849;28;45402;-86
2022/08/04 02:53:00;;;;;;;;;5.00;5.00;;;;;24.24;64.25;100429.03;4953907;28;45593;-86
2022/08/04 02:55:29;;;;;;;;;4.00;4.00;;;;;24.04;65.10;100405.53;4950321;28;47156;-85
2022/08/04 02:58:04;;;;;;;;;5.33;5.33;;;;;24.23;63.59;100448.13;4967345;28;45447;-85
2022/08/04 03:00:34;;;;;;;;;4.00;4.00;;;;;24.22;65.80;100447.25;4952616;28;45342;-86
2022/08/04 03:03:20;;;;;;;;;4.00;4.00;;;;;24.19;65.28;100455.53;4966855;28;45450;-85
2022/08/04 03:06:16;;;;;;;;;4.00;3.33;;;;;24.17;64.60;100450.16;4967125;28;47675;-86
2022/08/04 03:08:57;;;;;;;;;5.33;5.00;;;;;24.19;64.28;100441.06;4949450;28;44793;-85
2022/08/04 03:11:57;;;;;;;;;4.67;3.67;;;;;24.20;65.29;100445.53;4950260;28;45689;-85
2022/08/04 03:14:40;;;;;;;;;5.00;5.00;;;;;24.16;63.98;100453.84;4950822;28;45231;-86
2022/08/04 03:17:21;;;;;;;;;6.00;6.00;;;;;24.06;65.48;100436.22;4950457;28;47918;-85
2022/08/04 03:20:17;;;;;;;;;5.00;5.00;;;;;24.08;67.41;100445.16;4950771;28;45445;-85
2022/08/04 03:23:19;;;;;;;;;3.00;3.00;;;;;23.88;67.09;100412.63;4949897;28;45576;-85
2022/08/04 03:26:21;;;;;;;;;4.00;4.00;;;;;24.05;66.27;100439.00;4949353;28;45413;-85
2022/08/04 03:29:25;;;;;;;;;4.00;4.00;;;;;23.83;65.58;100409.22;4948600;28;47651;-85
2022/08/04 03:32:10;;;;;;;;;5.67;5.67;;;;;23.78;66.41;100401.31;4950806;28;44743;-86
2022/08/04 03:35:13;;;;;;;;;5.00;4.33;;;;;24.05;66.42;100445.31;4952072;28;45510;-86
2022/08/04 03:38:00;;;;;;;;;5.67;4.00;;;;;24.08;66.21;100447.00;4950017;28;44970;-86
2022/08/04 03:41:03;;;;;;;;;5.00;5.00;;;;;24.09;65.78;100446.03;4950263;28;46717;-85
2022/08/04 03:43:53;;;;;;;;;5.33;5.33;;;;;24.12;65.98;100440.47;4949262;28;45573;-86
2022/08/04 03:50:18;;;;;;;;;4.67;4.67;;;;;24.17;65.18;100416.69;4953052;28;45286;-86
2022/08/04 03:53:16;;;;;;;;;8.00;7.00;;;;;24.09;67.24;100365.41;4948149;28;45120;-85
2022/08/04 03:56:15;;;;;;;;;5.67;5.67;;;;;24.13;66.22;100394.19;4950629;28;45555;-84
2022/08/04 03:59:39;;;;;;;;;3.33;3.33;;;;;23.99;65.16;100406.69;4934026;28;45379;-86
2022/08/04 04:02:39;;;;;;;;;5.33;5.00;;;;;24.08;65.23;100423.44;4854031;29;45442;-87
2022/08/04 04:05:29;;;;;;;;;4.00;4.00;;;;;24.11;64.43;100434.16;4853011;29;45589;-86
2022/08/04 04:08:26;;;;;;;;;5.00;5.00;;;;;24.15;64.10;100435.75;4854723;29;45415;-87
2022/08/04 04:11:30;;;;;;;;;4.67;4.00;;;;;23.95;64.76;100422.22;4873110;29;45544;-87
2022/08/04 04:14:21;;;;;;;;;4.00;4.00;;;;;24.08;65.07;100461.47;4872485;29;45382;-85
2022/08/04 04:17:10;;;;;;;;;6.33;6.33;;;;;24.07;64.13;100465.13;4871575;29;45874;-85
2022/08/04 04:19:54;;;;;;;;;5.67;5.33;;;;;24.03;65.08;100474.38;4871273;29;45318;-85
2022/08/04 04:23:03;;;;;;;;;5.67;5.67;;;;;23.75;65.94;100436.69;4870637;29;45459;-86
2022/08/04 04:26:17;;;;;;;;;6.00;4.67;;;;;23.72;65.04;100436.84;4856732;29;45607;-85
2022/08/04 04:28:55;;;;;;;;;4.00;4.00;;;;;23.86;64.93;100455.28;4871621;29;46697;-85
2022/08/04 04:32:20;;;;;;;;;7.00;6.00;;;;;23.83;65.32;100449.97;4871810;29;45380;-84
2022/08/04 04:35:21;;;;;;;;;3.00;3.00;;;;;23.48;66.26;100428.84;4801107;29;45529;-84
2022/08/04 04:38:15;;;;;;;;;4.33;4.00;;;;;23.47;65.37;100442.47;4815319;29;45524;-85
2022/08/04 04:41:17;;;;;;;;;4.00;4.00;;;;;23.64;66.29;100483.34;4851634;29;47100;-86
2022/08/04 04:43:57;;;;;;;;;5.33;5.33;;;;;23.57;65.93;100498.13;4838674;29;45865;-85
2022/08/04 04:46:54;;;;;;;;;3.67;3.33;;;;;23.59;64.85;100512.53;4854018;29;45895;-84
2022/08/04 04:49:53;;;;;;;;;7.00;5.00;;;;;23.58;66.37;100516.19;4838780;29;45534;-86
2022/08/04 04:52:32;;;;;;;;;3.00;3.00;;;;;23.51;66.08;100520.13;4837706;29;45396;-86
2022/08/04 04:55:09;;;;;;;;;5.00;5.00;;;;;23.27;66.66;100467.78;4854209;29;45663;-86
2022/08/04 04:57:37;;;;;;;;;6.33;6.33;;;;;23.27;66.50;100460.53;4838019;29;44830;-86
2022/08/04 05:03:07;;;;;;;;;3.67;3.67;;;;;23.25;65.94;100469.66;4852945;29;45579;-86
2022/08/04 05:05:38;;;;;;;;;4.67;4.00;;;;;23.54;66.09;100522.72;4903746;28;44736;-86
2022/08/04 05:08:33;;;;;;;;;5.67;5.67;;;;;23.55;65.60;100516.31;4929726;28;44778;-86
2022/08/04 05:11:14;;;;;;;;;3.67;3.00;;;;;23.56;65.00;100509.94;4928810;28;45564;-86
2022/08/04 05:14:00;;;;;;;;;4.33;3.00;;;;;23.35;65.83;100482.78;4929283;28;47685;-86
2022/08/04 05:16:37;;;;;;;;;3.00;3.00;;;;;23.16;65.96;100455.56;4944651;28;45350;-86
2022/08/04 05:19:18;;;;;;;;;3.67;3.67;;;;;23.45;67.83;100499.56;4927899;28;45596;-86
2022/08/04 05:21:59;;;;;;;;;4.33;4.33;;;;;23.30;66.54;100501.09;4927991;28;45782;-86
2022/08/04 05:28:03;;;;;;;;;5.67;4.67;;;;;23.25;65.79;100519.41;4931058;28;45354;-86
2022/08/04 05:30:58;;;;;;;;;5.33;4.67;;;;;23.41;65.27;100540.47;4931244;28;45350;-86
2022/08/04 05:33:43;;;;;;;;;3.00;3.00;;;;;23.23;65.45;100540.31;4930815;28;45415;-86
2022/08/04 05:36:19;;;;;;;;;5.67;4.33;;;;;22.83;67.32;100474.09;4945187;28;45557;-86
2022/08/04 05:42:10;;;;;;;;;5.67;4.00;;;;;22.85;66.56;100487.59;4933510;28;44788;-86
2022/08/04 05:44:41;;;;;;;;;5.00;4.00;;;;;23.05;67.72;100516.66;4934776;28;45387;-85
2022/08/04 05:47:11;;;;;;;;;4.67;4.67;;;;;23.03;66.74;100486.00;4934086;28;46685;-86
2022/08/04 05:49:42;;;;;;;;;8.00;5.67;;;;;22.96;67.31;100452.78;4950731;28;44757;-86
2022/08/04 05:52:13;;;;;;;;;5.67;4.00;;;;;23.24;66.45;100487.78;4950753;28;45849;-85
2022/08/04 05:54:41;;;;;;;;;5.00;5.00;;;;;23.34;67.40;100505.44;4935305;28;45426;-86
2022/08/04 05:57:11;;;;;;;;;5.67;3.33;;;;;23.17;66.22;100461.88;4951048;28;47281;-86
2022/08/04 05:59:50;;;;;;;;;5.00;4.00;;;;;23.51;65.79;100499.31;4954260;28;44804;-85
2022/08/04 06:02:20;;;;;;;;;5.00;5.00;;;;;23.42;65.85;100475.25;4934696;28;45388;-85
2022/08/04 06:04:52;;;;;;;;;5.00;4.00;;;;;23.56;65.41;100499.09;4934774;28;45651;-85
2022/08/04 06:07:21;;;;;;;;;5.67;4.33;;;;;23.40;65.39;100479.00;4932762;28;46862;-85
2022/08/04 06:09:47;;;;;;;;;7.67;5.67;;;;;23.62;65.31;100520.53;4932250;28;45430;-85
2022/08/04 06:12:25;;;;;;;;;5.00;4.33;;;;;23.70;65.32;100521.09;4916452;28;45580;-85
2022/08/04 06:15:04;;;;;;;;;5.00;4.00;;;;;23.52;64.54;100470.31;4933030;28;45518;-85
2022/08/04 06:17:40;;;;;;;;;3.67;3.00;;;;;23.70;64.50;100499.38;4933716;28;45083;-85
2022/08/04 06:20:14;;;;;;;;;3.00;3.00;;;;;23.63;64.17;100481.59;4933181;28;45462;-85
2022/08/04 06:23:03;;;;;;;;;3.00;2.67;;;;;23.54;64.58;100482.00;4932434;28;45447;-85
2022/08/04 06:25:47;;;;;;;;;5.00;5.00;;;;;23.82;64.15;100513.41;4948616;28;45371;-85
2022/08/04 06:28:17;;;;;;;;;4.67;4.67;;;;;23.64;63.90;100469.78;4933788;28;46901;-85
2022/08/04 06:30:52;;;;;;;;;4.33;2.67;;;;;23.78;64.09;100484.63;4933609;28;45417;-85
2022/08/04 06:33:32;;;;;;;;;4.67;3.00;;;;;23.92;63.92;100512.91;4933850;28;45734;-84
2022/08/04 06:36:12;;;;;;;;;3.33;3.00;;;;;23.74;63.57;100475.69;4935359;28;44860;-85
2022/08/04 06:38:39;;;;;;;;;6.33;4.67;;;;;24.08;63.30;100529.41;4932997;28;45764;-85
2022/08/04 06:41:25;;;;;;;;;5.33;4.33;;;;;24.07;63.36;100530.31;4934073;28;45062;-87
2022/08/04 06:44:13;;;;;;;;;4.00;4.00;;;;;24.01;63.88;100535.16;4950185;28;45441;-88
2022/08/04 06:46:42;;;;;;;;;6.00;5.00;;;;;23.89;63.67;100517.59;4931655;28;44943;-88
2022/08/04 06:49:21;;;;;;;;;3.67;3.33;;;;;23.86;64.26;100506.88;4932948;28;45503;-87
2022/08/04 06:52:34;;;;;;;;;;;;;;;;;;;;;
2022/08/04 06:55:06;;;;;;;;;7.33;6.00;;;;;24.14;63.64;100493.78;4933090;28;68020;-86
2022/08/04 06:57:46;;;;;;;;;3.33;3.00;;;;;24.50;62.49;100500.31;4934592;28;45343;-87
2022/08/04 07:00:25;;;;;;;;;5.33;3.33;;;;;24.69;61.80;100513.91;4933829;28;45321;-87
2022/08/04 07:02:54;;;;;;;;;3.33;3.33;;;;;24.73;61.37;100501.94;4935829;28;45215;-86
2022/08/04 07:05:47;;;;;;;;;4.00;4.00;;;;;24.74;61.68;100503.69;4933641;28;44783;-86
2022/08/04 07:12:04;;;;;;;;;4.67;3.33;;;;;24.86;61.12;100546.59;4894577;28;45621;-88
2022/08/04 07:14:34;;;;;;;;;4.33;3.00;;;;;24.85;61.34;100539.41;4880469;29;45331;-86
2022/08/04 07:17:29;;;;;;;;;3.33;3.33;;;;;24.93;61.33;100544.50;4877917;29;45528;-87
2022/08/04 09:29:14;;;;;;;;;0.00;0.00;;;;;25.93;62.77;100643.00;4661109;23;46511;-85
2022/08/04 09:33:07;;;;;;;;;;;;;;;;;;;;;
2022/08/04 09:36:25;;;;;;;;;0.00;0.00;;;;;25.93;62.53;100621.19;4937382;28;65104;-85
2022/08/04 09:43:20;;;;;;;;;1.00;1.00;;;;;26.23;61.08;100632.34;4916903;28;45065;-85
2022/08/04 09:46:01;;;;;;;;;1.00;1.00;;;;;26.37;60.45;100653.41;4876579;29;45415;-84
2022/08/04 10:07:58;;;;;;;;;;;;;;;;;;;;;
2022/08/04 10:11:01;;;;;;;;;;;;;;;;;;;;;
2022/08/04 10:14:08;;;;;;;;;1.00;1.00;;;;;26.71;58.73;100651.63;4898464;28;66243;-84
2022/08/04 10:17:01;;;;;;;;;0.25;0.25;;;;;26.54;59.21;100655.22;4881731;29;45559;-84
2022/08/04 10:24:30;;;;;;;;;0.25;0.00;;;;;26.13;59.41;100610.13;4899261;28;44929;-84
2022/08/04 10:45:44;;;;;;;;;0.00;0.00;;;;;26.35;60.30;100630.81;4915359;28;44880;-82
2022/08/04 10:48:26;;;;;;;;;0.00;0.00;;;;;26.18;60.20;100628.09;4901704;28;45330;-85
2022/08/04 10:51:55;;;;;;;;;;;;;;;;;;;;;
2022/08/04 10:54:53;;;;;;;;;1.67;1.67;;;;;26.23;61.08;100631.47;4888933;28;72105;-85
2022/08/04 11:05:21;;;;;;;;;2.33;1.67;;;;;26.55;59.05;100577.91;4832562;29;44968;-86
2022/08/04 11:08:03;;;;;;;;;1.33;1.33;;;;;26.66;58.90;100586.44;4859372;29;45463;-84
2022/08/04 11:11:13;;;;;;;;;0.33;0.33;;;;;26.73;58.90;100590.56;4859117;29;44862;-85
2022/08/04 11:14:19;;;;;;;;;1.00;1.00;;;;;27.00;58.41;100619.97;4822989;29;45672;-84
2022/08/04 11:17:13;;;;;;;;;0.33;0.33;;;;;26.76;57.95;100586.78;4821312;29;47069;-84
2022/08/04 11:20:18;;;;;;;;;1.33;1.33;;;;;27.01;58.13;100612.72;4807491;29;44871;-85
2022/08/04 11:26:48;;;;;;;;;1.50;1.50;;;;;27.21;58.35;100609.72;4826156;29;44898;-84
2022/08/04 11:29:41;;;;;;;;;0.33;0.33;;;;;27.31;57.04;100619.16;4819238;29;46709;-85
2022/08/04 11:32:51;;;;;;;;;1.67;0.67;;;;;27.33;57.00;100616.34;4851882;29;44805;-85
2022/08/04 11:38:24;;;;;;;;;0.33;0.33;;;;;27.14;55.62;100586.44;5163034;23;47588;-86
2022/08/04 11:41:17;;;;;;;;;1.00;1.00;;;;;27.37;56.25;100617.03;4929591;28;46787;-85
2022/08/04 11:44:02;;;;;;;;;2.00;2.00;;;;;27.39;56.13;100620.56;4934962;28;45327;-86
2022/08/04 11:47:43;;;;;;;;;;;;;;;;;;;;;
2022/08/04 11:58:26;;;;;;;;;2.33;2.00;;;;;27.58;53.25;100577.53;4943222;23;45034;-85
2022/08/04 12:14:39;;;;;;;;;1.00;1.00;;;;;28.30;53.59;100627.00;4947362;23;45471;-83
2022/08/04 12:21:24;;;;;;;;;1.00;1.00;;;;;28.78;51.36;100619.41;4983142;23;44831;-84
2022/08/04 12:24:48;;;;;;;;;3.00;1.67;;;;;28.99;50.61;100616.28;4932118;28;45338;-85
2022/08/04 12:28:17;;;;;;;;;1.00;1.00;;;;;29.22;50.39;100618.41;5099381;23;45705;-85
2022/08/04 12:44:43;;;;;;;;;1.00;1.00;;;;;29.32;49.10;100589.44;4935170;28;45366;-85
2022/08/04 12:54:30;;;;;;;;;2.00;2.00;;;;;29.32;48.88;100624.16;4796049;26;45504;-85
2022/08/04 13:08:25;;;;;;;;;1.33;1.33;;;;;28.83;48.73;100584.44;4248758;26;45407;-84
2022/08/04 13:11:04;;;;;;;;;3.00;2.00;;;;;28.77;47.62;100587.56;4933894;28;45433;-84
2022/08/04 13:17:48;;;;;;;;;1.67;1.67;;;;;28.72;48.84;100622.53;4950579;28;45472;-85
2022/08/04 13:21:05;;;;;;;;;1.00;1.00;;;;;28.60;49.53;100585.91;5028419;23;45358;-85
2022/08/04 13:23:38;;;;;;;;;2.33;2.33;;;;;28.84;50.32;100624.50;4953376;28;44918;-84
2022/08/04 13:27:14;;;;;;;;;2.00;2.00;;;;;28.98;49.61;100623.59;4940062;28;45498;-84
2022/08/04 13:29:44;;;;;;;;;2.33;2.33;;;;;28.80;49.44;100583.75;4954734;28;45471;-85
2022/08/04 13:32:19;;;;;;;;;3.67;2.67;;;;;28.92;49.58;100622.16;4936843;28;45609;-84
2022/08/04 13:34:48;;;;;;;;;3.00;3.00;;;;;28.83;49.93;100609.06;4950281;28;45438;-85
2022/08/04 13:37:14;;;;;;;;;2.00;2.00;;;;;28.58;50.30;100584.22;4952861;28;45358;-84
2022/08/04 13:39:50;;;;;;;;;3.00;2.67;;;;;28.78;49.98;100597.50;4936833;28;45557;-84
2022/08/04 13:42:21;;;;;;;;;2.00;1.33;;;;;28.84;49.56;100594.38;4935918;28;45493;-85
2022/08/04 13:45:38;;;;;;;;;4.67;2.00;;;;;28.96;49.29;100605.53;4954698;28;45296;-85
2022/08/04 13:48:09;;;;;;;;;0.67;0.00;;;;;29.02;49.64;100605.13;4893790;28;44870;-85
2022/08/04 13:51:06;;;;;;;;;2.33;2.00;;;;;28.88;49.45;100567.69;4892691;29;45040;-84
2022/08/04 13:53:59;;;;;;;;;1.67;1.67;;;;;29.00;48.81;100566.00;4893500;28;45500;-84
2022/08/04 13:56:41;;;;;;;;;3.00;3.00;;;;;29.30;48.70;100605.09;4893180;28;45316;-85
2022/08/04 13:59:14;;;;;;;;;2.33;2.33;;;;;29.52;47.47;100609.13;4893857;28;44926;-84
2022/08/04 14:02:13;;;;;;;;;1.33;0.00;;;;;30.55;46.49;100584.69;4898103;29;44900;-85
2022/08/04 14:05:06;;;;;;;;;2.00;2.00;;;;;31.41;43.88;100571.00;4913139;28;45462;-85
2022/08/04 14:08:21;;;;;;;;;2.00;2.00;;;;;32.69;41.65;100607.84;4901478;28;45332;-85
2022/08/04 14:10:59;;;;;;;;;2.00;2.00;;;;;33.40;40.81;100597.38;4857440;29;45486;-85
2022/08/04 14:13:43;;;;;;;;;3.00;3.00;;;;;34.73;38.00;100581.31;4858489;29;44829;-85
2022/08/04 14:17:11;;;;;;;;;2.33;2.33;;;;;34.16;36.55;100571.66;4859020;29;46107;-84
2022/08/04 14:20:14;;;;;;;;;4.00;4.00;;;;;35.22;36.52;100582.34;4840304;29;44985;-85
2022/08/04 14:22:42;;;;;;;;;2.33;2.00;;;;;36.44;35.35;100545.94;4852981;29;45390;-85
2022/08/04 14:25:18;;;;;;;;;4.67;4.67;;;;;37.48;32.14;100578.13;4888182;28;45532;-84
2022/08/04 14:27:54;;;;;;;;;2.33;2.33;;;;;38.34;33.06;100589.53;4881356;28;47568;-84
2022/08/04 14:30:35;;;;;;;;;1.67;1.67;;;;;38.10;31.60;100590.22;4880304;28;45440;-84
2022/08/04 14:33:13;;;;;;;;;3.33;3.33;;;;;39.14;27.70;100577.28;4880254;28;45453;-84
2022/08/04 14:35:39;;;;;;;;;2.67;2.67;;;;;39.55;28.57;100550.47;4894903;29;45421;-84
2022/08/04 14:38:09;;;;;;;;;1.00;1.00;;;;;40.48;28.09;100573.44;4894590;28;45491;-84
2022/08/04 14:40:44;;;;;;;;;2.67;2.67;;;;;40.73;26.34;100588.19;4894641;29;44796;-84
2022/08/04 14:43:30;;;;;;;;;4.00;4.00;;;;;40.19;27.44;100589.66;4879259;29;44802;-84
2022/08/04 14:46:18;;;;;;;;;3.33;3.33;;;;;38.48;28.39;100570.47;4899503;28;45428;-85
2022/08/04 14:49:13;;;;;;;;;5.33;4.00;;;;;37.02;29.76;100573.41;4973280;28;45318;-85
2022/08/04 14:52:11;;;;;;;;;3.33;3.33;;;;;37.77;30.65;100605.66;4973124;28;45599;-84
2022/08/04 14:54:58;;;;;;;;;2.67;2.67;;;;;38.60;29.23;100585.88;4965580;28;45272;-85
2022/08/04 14:58:01;;;;;;;;;4.00;4.00;;;;;38.01;29.70;100583.66;4923280;28;45445;-85
2022/08/04 15:10:57;;;;;;;;;3.00;3.00;;;;;33.00;35.80;100610.81;5151721;23;46766;-83
2022/08/04 15:13:48;;;;;;;;;3.33;3.00;;;;;32.44;37.10;100617.16;4952738;28;45424;-84
2022/08/04 15:19:56;;;;;;;;;4.00;4.00;;;;;31.96;38.32;100620.00;4735258;26;45525;-84
2022/08/04 15:22:40;;;;;;;;;3.67;3.67;;;;;32.22;38.48;100631.75;4970316;28;45500;-85
2022/08/04 15:25:41;;;;;;;;;1.00;1.00;;;;;31.94;38.00;100628.38;4973180;28;45515;-84
2022/08/04 15:28:58;;;;;;;;;3.00;3.00;;;;;31.53;39.00;100621.44;4974731;28;45506;-84
2022/08/04 15:32:13;;;;;;;;;2.67;2.67;;;;;31.06;39.32;100614.84;4972073;28;45944;-85
2022/08/04 15:35:09;;;;;;;;;4.33;3.67;;;;;31.01;40.13;100639.03;4971270;28;45358;-84
2022/08/04 15:37:53;;;;;;;;;4.67;3.00;;;;;30.67;41.69;100623.09;4954831;28;47161;-84
2022/08/04 15:40:43;;;;;;;;;4.33;3.67;;;;;30.43;41.66;100617.50;4964912;28;44857;-84
2022/08/04 15:43:29;;;;;;;;;4.67;3.67;;;;;30.15;42.37;100623.16;4974471;28;44890;-84
2022/08/04 15:46:10;;;;;;;;;3.67;3.67;;;;;30.02;44.11;100639.59;4968679;28;44906;-83
2022/08/04 15:48:55;;;;;;;;;6.33;6.33;;;;;29.77;44.75;100637.66;4972829;28;45528;-84
2022/08/04 15:51:45;;;;;;;;;5.00;5.00;;;;;29.50;46.99;100654.94;4973403;28;45472;-84
2022/08/04 15:54:39;;;;;;;;;;;;;;;;;;;;;
2022/08/04 15:57:08;;;;;;;;;5.67;5.67;;;;;28.80;47.36;100644.81;4970668;28;66001;-84
2022/08/04 15:59:58;;;;;;;;;6.33;5.00;;;;;28.98;46.98;100691.19;4971793;28;47012;-85
2022/08/04 16:03:20;;;;;;;;;4.00;4.00;;;;;28.75;47.04;100662.53;4972600;28;45318;-85
2022/08/04 16:09:41;;;;;;;;;;;;;;;;;;;;;
2022/08/04 16:12:54;;;;;;;;;6.00;6.00;;;;;28.62;47.93;100666.06;4931931;28;75115;-83
2022/08/04 16:15:58;;;;;;;;;6.00;6.00;;;;;28.69;48.72;100685.69;4911111;29;45385;-85
2022/08/04 16:18:32;;;;;;;;;7.00;5.00;;;;;28.61;49.13;100682.56;4912143;29;45358;-84
2022/08/04 16:21:32;;;;;;;;;;;;;;;;;;;;;
2022/08/04 16:25:00;;;;;;;;;3.33;3.33;;;;;28.55;52.63;100652.84;4897122;28;74728;-83
2022/08/04 16:28:31;;;;;;;;;9.67;7.00;;;;;28.30;55.78;100637.94;4946201;23;45717;-84
2022/08/04 16:31:44;;;;;;;;;7.00;5.00;;;;;27.96;57.61;100653.66;4931360;26;44862;-84
2022/08/04 16:35:02;;;;;;;;;;;;;;;;;;;;;
2022/08/04 16:37:43;;;;;;;;;7.00;7.00;;;;;27.43;58.77;100606.66;5296247;23;73523;-84
2022/08/04 16:43:43;;;;;;;;;9.00;7.33;;;;;27.11;61.33;100595.69;4905412;28;45504;-85
2022/08/04 16:46:39;;;;;;;;;7.00;7.00;;;;;27.06;65.25;100611.44;4934120;28;45446;-83
2022/08/04 16:49:09;;;;;;;;;7.00;7.00;;;;;26.88;59.91;100590.66;4951893;28;45425;-84
2022/08/04 16:51:44;;;;;;;;;5.67;5.67;;;;;26.95;61.13;100600.28;4942314;28;45370;-84
2022/08/04 16:54:14;;;;;;;;;6.00;6.00;;;;;26.80;61.24;100573.84;4949380;28;44792;-84
2022/08/04 16:56:40;;;;;;;;;8.33;6.67;;;;;26.97;61.70;100600.19;4965398;28;45263;-84
2022/08/04 16:59:56;;;;;;;;;2.00;1.33;;;;;26.98;62.81;100588.28;4933253;28;46992;-85
2022/08/04 17:02:25;;;;;;;;;11.33;9.67;;;;;26.93;62.82;100575.78;4950912;28;45550;-85
2022/08/04 17:04:51;;;;;;;;;8.00;7.00;;;;;26.98;62.31;100575.53;4982831;28;45489;-85
2022/08/04 17:07:16;;;;;;;;;9.33;8.00;;;;;27.10;62.47;100582.13;4970032;28;45356;-85
2022/08/04 17:09:49;;;;;;;;;4.67;4.67;;;;;27.09;63.18;100564.00;4952746;28;47195;-84
2022/08/04 17:12:26;;;;;;;;;8.33;6.00;;;;;27.10;63.10;100568.47;4970118;28;45057;-84
2022/08/04 17:14:52;;;;;;;;;5.33;4.33;;;;;27.02;62.75;100568.03;4970120;28;44799;-84
2022/08/04 17:17:22;;;;;;;;;7.67;6.67;;;;;26.72;64.74;100520.59;4952565;28;45537;-84
2022/08/04 17:19:52;;;;;;;;;7.33;6.33;;;;;26.89;63.05;100579.66;4968977;28;46894;-84
2022/08/04 17:22:18;;;;;;;;;8.00;8.00;;;;;26.90;63.42;100603.25;4952097;28;45502;-84
2022/08/04 17:24:44;;;;;;;;;2.67;2.67;;;;;26.73;65.21;100603.31;4952582;28;45510;-85
2022/08/04 17:27:10;;;;;;;;;5.67;5.67;;;;;26.71;67.73;100618.91;4953221;28;45464;-84
2022/08/04 17:29:37;;;;;;;;;9.00;8.00;;;;;26.67;66.55;100593.63;4968353;28;47282;-84
2022/08/04 17:32:03;;;;;;;;;10.33;8.33;;;;;26.75;65.93;100574.13;4970131;28;45388;-84
2022/08/04 17:34:28;;;;;;;;;9.00;7.67;;;;;26.93;65.48;100583.09;4968215;28;45780;-84
2022/08/04 17:36:54;;;;;;;;;7.00;7.00;;;;;27.18;65.72;100596.22;4956166;28;44812;-84
2022/08/04 17:39:23;;;;;;;;;9.00;7.33;;;;;27.29;65.23;100607.44;4955626;28;47760;-84
2022/08/04 17:41:57;;;;;;;;;11.33;11.33;;;;;27.25;64.56;100580.41;4972499;28;45433;-84
2022/08/04 17:44:36;;;;;;;;;10.33;10.33;;;;;27.51;64.68;100607.09;4972593;28;45815;-83
2022/08/04 17:47:08;;;;;;;;;9.00;9.00;;;;;27.44;65.27;100588.41;4937105;28;45643;-84
2022/08/04 17:49:39;;;;;;;;;7.67;7.67;;;;;27.53;63.13;100613.34;4937072;28;47000;-84
2022/08/04 17:52:22;;;;;;;;;8.33;7.33;;;;;27.24;64.99;100584.97;4954261;28;45601;-84